createdAt,value
2022-08-22T00:02:45.269Z,99902.97
2022-08-22T00:02:57.486Z,99929.69
2022-08-22T00:08:03.634Z,99940.78
2022-08-22T00:12:24.612Z,99945.44
2022-08-22T00:16:48.514Z,99929.66
2022-08-22T00:21:13.161Z,99937.03
2022-08-22T00:25:31.409Z,99935.78
2022-08-22T00:29:47.708Z,99942.66
2022-08-22T00:34:09.860Z,99946.31
2022-08-22T00:38:27.207Z,99961.59
2022-08-22T00:43:10.302Z,99950.94
2022-08-22T00:47:51.630Z,99947.31
2022-08-22T00:52:19.774Z,99957.75
2022-08-22T00:56:53.896Z,99956.50
2022-08-22T01:01:01.912Z,99965.66
2022-08-22T01:05:43.789Z,99965.41
2022-08-22T01:10:27.449Z,99959.50
2022-08-22T01:14:43.087Z,99959.78
2022-08-22T01:19:00.940Z,99953.03
2022-08-22T01:23:37.214Z,99960.13
2022-08-22T01:28:23.205Z,99969.84
2022-08-22T01:33:09.321Z,99962.13
2022-08-22T01:37:32.923Z,99969.13
2022-08-22T01:42:15.408Z,99971.69
2022-08-22T01:46:47.563Z,99973.41
2022-08-22T01:51:00.993Z,99970.84
2022-08-22T01:55:13.143Z,99971.13
2022-08-22T01:59:27.609Z,99982.50
2022-08-22T02:04:22.551Z,99969.78
2022-08-22T02:08:57.545Z,99971.50
2022-08-22T02:13:32.549Z,99967.03
2022-08-22T02:17:55.589Z,99978.75
2022-08-22T02:22:07.506Z,99967.84
2022-08-22T02:26:44.991Z,99975.41
2022-08-22T02:30:55.031Z,99990.38
2022-08-22T02:35:18.832Z,99973.19
2022-08-22T02:39:42.239Z,99975.22
2022-08-22T02:43:57.267Z,99979.91
2022-08-22T02:48:19.663Z,99982.81
2022-08-22T02:52:26.622Z,99981.53
2022-08-22T02:56:43.836Z,99981.19
2022-08-22T03:01:09.575Z,99983.66
2022-08-22T03:05:49.065Z,99985.91
2022-08-22T03:10:10.784Z,99985.88
2022-08-22T03:14:31.044Z,99985.19
2022-08-22T03:18:59.562Z,99986.31
2022-08-22T03:23:09.933Z,99973.81
2022-08-22T03:27:32.106Z,99976.00
2022-08-22T03:31:35.758Z,99970.50
2022-08-22T03:35:46.755Z,99970.13
2022-08-22T03:39:51.526Z,99981.78
2022-08-22T03:44:03.619Z,99980.78
2022-08-22T03:48:39.453Z,99975.13
2022-08-22T03:53:18.801Z,99976.41
2022-08-22T03:57:42.179Z,99981.41
2022-08-22T04:02:42.018Z,99980.31
2022-08-22T04:07:40.128Z,99982.13
2022-08-22T04:12:15.474Z,99975.91
2022-08-22T04:17:01.294Z,99974.84
2022-08-22T04:21:30.322Z,99979.59
2022-08-22T04:25:42.531Z,99981.50
2022-08-22T04:29:55.438Z,99972.69
2022-08-22T04:34:02.278Z,99978.88
2022-08-22T04:38:42.830Z,99984.78
2022-08-22T04:42:54.394Z,99988.34
2022-08-22T04:47:36.721Z,99982.13
2022-08-22T04:51:54.166Z,99974.03
2022-08-22T04:56:07.468Z,99982.41
2022-08-22T05:00:11.478Z,99977.13
2022-08-22T05:04:25.713Z,99984.06
2022-08-22T05:08:31.020Z,99985.53
2022-08-22T05:12:37.090Z,99991.97
2022-08-22T05:16:41.107Z,100007.34
2022-08-22T05:20:58.098Z,99999.03
2022-08-22T05:25:08.738Z,100005.59
2022-08-22T05:29:13.826Z,100021.38
2022-08-22T05:33:21.290Z,100011.72
2022-08-22T05:37:59.771Z,100011.34
2022-08-22T05:42:02.645Z,100027.09
2022-08-22T05:46:06.409Z,100026.56
2022-08-22T05:50:35.759Z,100032.09
2022-08-22T05:54:57.541Z,100035.81
2022-08-22T05:59:08.213Z,100043.22
2022-08-22T06:03:20.892Z,100034.31
2022-08-22T06:07:41.256Z,100030.44
2022-08-22T06:11:52.964Z,100023.34
2022-08-22T06:16:18.070Z,100020.63
2022-08-22T06:20:23.852Z,100040.47
2022-08-22T06:24:27.271Z,100021.63
2022-08-22T06:28:34.437Z,100019.75
2022-08-22T06:32:59.523Z,100029.97
2022-08-22T06:37:05.898Z,100038.69
2022-08-22T06:41:07.750Z,100041.66
2022-08-22T06:45:22.806Z,100057.31
2022-08-22T06:49:25.185Z,100040.41
2022-08-22T06:53:47.617Z,100043.97
2022-08-22T06:58:00.981Z,100041.81
2022-08-22T07:02:16.451Z,100039.63
2022-08-22T07:06:28.558Z,100038.88
2022-08-22T07:10:32.064Z,100037.75
2022-08-22T07:14:43.839Z,100026.97
2022-08-22T07:18:49.554Z,100031.53
2022-08-22T07:23:09.628Z,100040.81
2022-08-22T07:27:57.990Z,100028.31
2022-08-22T07:32:17.755Z,100029.41
2022-08-22T07:36:31.987Z,100022.94
2022-08-22T07:40:53.790Z,100027.00
2022-08-22T07:45:06.915Z,100025.38
2022-08-22T07:49:21.025Z,100031.22
2022-08-22T07:54:00.965Z,100019.88
2022-08-22T07:58:04.811Z,100018.91
2022-08-22T08:02:11.123Z,100020.13
2022-08-22T08:06:15.084Z,100002.69
2022-08-22T08:10:25.729Z,99999.34
2022-08-22T08:14:27.564Z,100016.16
2022-08-22T08:18:30.554Z,100011.00
2022-08-22T08:22:32.330Z,100016.00
2022-08-22T08:27:05.098Z,100006.72
2022-08-22T08:31:22.615Z,100005.38
2022-08-22T08:35:28.032Z,100002.50
2022-08-22T08:39:50.704Z,100011.84
2022-08-22T08:44:23.404Z,100003.69
2022-08-22T08:48:40.630Z,99992.56
2022-08-22T08:53:34.160Z,99997.28
2022-08-22T08:57:38.608Z,99995.56
2022-08-22T09:02:34.901Z,99987.69
2022-08-22T09:07:21.640Z,99993.13
2022-08-22T09:11:40.265Z,99983.94
2022-08-22T09:16:13.392Z,100000.69
2022-08-22T09:20:30.550Z,100009.69
2022-08-22T09:25:23.596Z,99993.88
2022-08-22T09:29:54.374Z,100003.19
2022-08-22T09:34:29.477Z,100002.00
2022-08-22T09:38:38.760Z,100003.28
2022-08-22T09:42:58.855Z,100005.91
2022-08-22T09:47:27.543Z,100004.97
2022-08-22T09:51:56.941Z,100011.63
2022-08-22T09:56:19.741Z,100011.56
2022-08-22T10:00:40.660Z,100014.94
2022-08-22T10:05:08.009Z,100008.06
2022-08-22T10:09:26.419Z,100002.75
2022-08-22T10:14:00.479Z,100012.63
2022-08-22T10:18:29.620Z,100011.34
2022-08-22T10:22:41.665Z,100004.81
2022-08-22T10:26:58.022Z,100014.97
2022-08-22T10:31:42.792Z,100010.94
2022-08-22T10:36:11.857Z,100016.53
2022-08-22T10:40:15.048Z,100006.09
2022-08-22T10:44:20.677Z,100007.13
2022-08-22T10:48:47.401Z,100005.25
2022-08-22T10:53:14.973Z,100010.28
2022-08-22T10:57:44.134Z,99988.75
2022-08-22T11:02:20.756Z,99999.34
2022-08-22T11:06:29.925Z,100000.91
2022-08-22T11:10:53.742Z,100001.00
2022-08-22T11:15:43.866Z,100008.50
2022-08-22T11:20:10.791Z,100009.72
2022-08-22T11:24:55.265Z,100015.91
2022-08-22T11:29:33.250Z,100018.91
2022-08-22T11:33:47.777Z,100003.50
2022-08-22T11:38:14.968Z,100010.69
2022-08-22T11:42:53.249Z,100006.53
2022-08-22T11:46:57.194Z,100011.00
2022-08-22T11:51:51.870Z,100018.59
2022-08-22T11:56:17.827Z,100017.13
2022-08-22T12:00:46.103Z,100017.25
2022-08-22T12:05:03.683Z,100019.41
2022-08-22T12:09:12.944Z,100006.31
2022-08-22T12:13:46.064Z,99998.03
2022-08-22T12:18:27.117Z,99998.81
2022-08-22T12:23:19.967Z,99996.09
2022-08-22T12:27:55.915Z,100000.16
2022-08-22T12:31:59.015Z,99997.72
2022-08-22T12:37:02.331Z,99993.72
2022-08-22T12:41:41.106Z,99993.19
2022-08-22T12:46:19.624Z,99983.38
2022-08-22T12:50:38.976Z,99978.63
2022-08-22T12:54:53.309Z,99972.56
2022-08-22T12:59:30.745Z,99983.38
2022-08-22T13:03:55.665Z,99972.13
2022-08-22T13:08:04.404Z,99970.47
2022-08-22T13:12:27.751Z,99962.03
2022-08-22T13:16:48.873Z,99984.25
2022-08-22T13:20:54.583Z,99973.91
2022-08-22T13:25:04.965Z,99970.06
2022-08-22T13:29:25.673Z,99987.78
2022-08-22T13:33:35.089Z,99978.09
2022-08-22T13:37:40.955Z,99991.25
2022-08-22T13:41:55.779Z,99976.66
2022-08-22T13:46:02.343Z,99980.09
2022-08-22T13:50:19.354Z,99979.28
2022-08-22T13:54:49.502Z,99979.81
2022-08-22T13:58:56.187Z,99974.19
2022-08-22T14:03:12.530Z,99978.06
2022-08-22T14:07:36.465Z,99966.28
2022-08-22T14:12:22.188Z,99967.97
2022-08-22T14:16:48.926Z,99958.72
2022-08-22T14:20:51.329Z,99954.81
2022-08-22T14:24:58.565Z,99962.69
2022-08-22T14:29:03.067Z,99950.16
2022-08-22T14:33:22.178Z,99949.59
2022-08-22T14:37:28.916Z,99950.50
2022-08-22T14:41:56.348Z,99958.06
2022-08-22T14:46:07.168Z,99958.97
2022-08-22T14:50:37.004Z,99952.97
2022-08-22T14:54:39.275Z,99958.88
2022-08-22T14:58:52.162Z,99958.72
2022-08-22T15:02:54.613Z,99962.28
2022-08-22T15:06:58.451Z,99956.31
2022-08-22T15:11:17.310Z,99965.13
2022-08-22T15:15:49.828Z,99958.06
2022-08-22T15:19:56.337Z,99960.38
2022-08-22T15:24:02.584Z,99956.53
2022-08-22T15:28:20.012Z,99965.69
2022-08-22T15:32:30.463Z,99951.25
2022-08-22T15:36:32.346Z,99954.38
2022-08-22T15:40:43.529Z,99963.06
2022-08-22T15:44:47.805Z,99958.78
2022-08-22T15:49:19.775Z,99967.03
2022-08-22T15:53:27.011Z,99968.06
2022-08-22T15:57:38.903Z,99954.38
2022-08-22T16:01:50.386Z,99953.75
2022-08-22T16:06:07.536Z,99946.38
2022-08-22T16:10:28.064Z,99952.03
2022-08-22T16:14:35.990Z,99952.09
2022-08-22T16:18:39.186Z,99952.47
2022-08-22T16:23:00.358Z,99950.59
2022-08-22T16:27:19.190Z,99964.13
2022-08-22T16:31:31.651Z,99965.38
2022-08-22T16:36:32.253Z,99960.63
2022-08-22T16:40:34.156Z,99956.69
2022-08-22T16:45:05.433Z,99985.13
2022-08-22T16:49:07.917Z,99956.66
2022-08-22T16:53:21.829Z,99974.97
2022-08-22T16:58:06.044Z,99968.50
2022-08-22T17:02:53.772Z,99974.44
2022-08-22T17:07:28.948Z,99981.47
2022-08-22T17:11:39.447Z,99987.59
2022-08-22T17:16:12.490Z,99981.19
2022-08-22T17:20:49.797Z,99994.66
2022-08-22T17:25:20.850Z,99998.66
2022-08-22T17:29:38.697Z,100002.19
2022-08-22T17:33:40.474Z,100003.03
2022-08-22T17:38:38.790Z,99994.63
2022-08-22T17:43:01.067Z,100006.88
2022-08-22T17:47:19.767Z,99996.88
2022-08-22T17:51:39.538Z,100013.63
2022-08-22T17:56:21.346Z,100003.22
2022-08-22T18:00:30.667Z,100008.94
2022-08-22T18:05:10.768Z,100016.31
2022-08-22T18:09:25.688Z,100012.97
2022-08-22T18:13:56.369Z,100013.44
2022-08-22T18:18:38.223Z,100019.13
2022-08-22T18:22:42.683Z,100021.41
2022-08-22T18:27:05.486Z,100020.59
2022-08-22T18:31:41.758Z,100027.78
2022-08-22T18:35:54.622Z,100031.84
2022-08-22T18:40:04.466Z,100027.81
2022-08-22T18:44:40.215Z,100028.22
2022-08-22T18:49:11.544Z,100023.72
2022-08-22T18:53:37.916Z,100020.91
2022-08-22T18:58:03.502Z,100024.34
2022-08-22T19:02:39.495Z,100023.34
2022-08-22T19:07:05.383Z,100023.34
2022-08-22T19:11:46.335Z,100023.13
2022-08-22T19:16:24.098Z,100025.41
2022-08-22T19:20:53.012Z,100025.19
2022-08-22T19:25:25.943Z,100036.19
2022-08-22T19:29:30.988Z,100033.53
2022-08-22T19:33:40.521Z,100027.59
2022-08-22T19:37:58.755Z,100033.72
2022-08-22T19:42:01.382Z,100030.03
2022-08-22T19:46:09.668Z,100025.97
2022-08-22T19:50:18.011Z,100034.75
2022-08-22T19:54:21.646Z,100044.75
2022-08-22T19:58:54.788Z,100039.03
2022-08-22T20:03:41.154Z,100044.97
2022-08-22T20:08:17.654Z,100047.00
2022-08-22T20:12:32.303Z,100038.00
2022-08-22T20:17:24.495Z,100050.38
2022-08-22T20:21:53.761Z,100050.03
2022-08-22T20:25:56.013Z,100048.84
2022-08-22T20:30:17.826Z,100044.34
2022-08-22T20:34:24.898Z,100057.06
2022-08-22T20:38:55.400Z,100044.94
2022-08-22T20:43:02.496Z,100048.63
2022-08-22T20:51:39.737Z,100035.31
2022-08-22T20:55:41.564Z,100032.03
2022-08-22T21:00:13.156Z,100033.16
2022-08-22T21:04:17.594Z,100040.09
2022-08-22T21:08:26.369Z,100041.06
2022-08-22T21:12:28.284Z,100039.75
2022-08-22T21:16:33.463Z,100035.06
2022-08-22T21:20:37.172Z,100052.25
2022-08-22T21:24:38.982Z,100050.94
2022-08-22T21:29:18.505Z,100065.72
2022-08-22T21:33:24.569Z,100057.81
2022-08-22T21:37:34.845Z,100062.56
2022-08-22T21:41:44.312Z,100071.06
2022-08-22T21:45:46.907Z,100057.63
2022-08-22T21:50:12.976Z,100065.41
2022-08-22T21:54:24.617Z,100074.38
2022-08-22T21:58:37.286Z,100064.78
2022-08-22T22:02:41.552Z,100059.69
2022-08-22T22:06:43.494Z,100058.25
2022-08-22T22:10:46.648Z,100065.19
2022-08-22T22:14:51.599Z,100074.47
2022-08-22T22:18:53.707Z,100080.84
2022-08-22T22:22:55.732Z,100069.06
2022-08-22T22:26:57.862Z,100080.59
2022-08-22T22:31:00.125Z,100072.25
2022-08-22T22:35:02.159Z,100061.63
2022-08-22T22:39:06.994Z,100075.84
2022-08-22T22:43:10.273Z,100070.97
2022-08-22T22:47:11.972Z,100075.06
2022-08-22T22:51:14.191Z,100061.44
2022-08-22T22:55:24.939Z,100068.16
2022-08-22T22:59:27.062Z,100075.84
2022-08-22T23:03:28.882Z,100083.59
2022-08-22T23:07:30.736Z,100073.66
2022-08-22T23:11:36.091Z,100084.25
2022-08-22T23:15:37.876Z,100075.47
2022-08-22T23:19:39.695Z,100073.41
2022-08-22T23:23:41.968Z,100070.16
2022-08-22T23:27:43.879Z,100073.06
2022-08-22T23:31:58.396Z,100061.84
2022-08-22T23:36:00.201Z,100071.38
2022-08-22T23:40:02.786Z,100066.31
2022-08-22T23:44:07.710Z,100070.56
2022-08-22T23:48:15.255Z,100077.31
2022-08-22T23:52:17.195Z,100061.84
2022-08-22T23:56:22.557Z,100064.88
